Time;durP1;ratioP1;P1;durP2;ratioP2;P2;SDS_P1;SDS_P2;PMS_P1;PMS_P2;Temp;Humidity;BMP_temperature;BMP_pressure;BME280_temperature;BME280_humidity;BME280_pressure;Samples;Min_cycle;Max_cycle;Signal;HPM_P1;HPM_P2
2021/03/02 00:01:16;;;;;;;;;;;19.20;49.00;;;;;;4912088;29;19958;-94
2021/03/02 00:03:43;;;;;;;;;;;19.20;49.10;;;;;;4914644;29;19927;-94
2021/03/02 00:06:10;;;;;;;;;;;19.10;49.00;;;;;;4896743;29;19935;-93
2021/03/02 00:08:40;;;;;;;;;;;19.20;49.10;;;;;;4929656;29;19956;-93
2021/03/02 00:11:06;;;;;;;;;;;19.10;49.10;;;;;;4910597;29;20430;-91
2021/03/02 00:13:33;;;;;;;;;;;19.10;49.20;;;;;;4889078;29;19927;-91
2021/03/02 00:16:01;;;;;;;;;;;19.20;49.30;;;;;;4909484;29;21871;-92
2021/03/02 00:18:32;;;;;;;;;;;19.10;49.20;;;;;;4909351;29;19927;-92
2021/03/02 00:21:11;;;;;;;;;;;19.10;49.20;;;;;;4911170;29;20016;-91
2021/03/02 00:23:38;;;;;;;;;;;19.10;49.20;;;;;;4888284;29;19931;-92
2021/03/02 00:26:09;;;;;;;;;;;19.10;49.30;;;;;;4895332;29;19928;-92
2021/03/02 00:28:35;;;;;;;;;;;19.10;49.30;;;;;;4912619;29;19933;-92
2021/03/02 00:31:03;;;;;;;;;;;19.00;49.30;;;;;;4911135;29;20361;-91
2021/03/02 00:33:30;;;;;;;;;;;19.10;49.30;;;;;;4894491;29;20431;-91
2021/03/02 00:35:56;;;;;;;;;;;19.00;49.30;;;;;;4912485;29;19949;-91
2021/03/02 00:38:23;;;;;;;;;;;19.00;49.30;;;;;;4878134;29;19935;-91
2021/03/02 00:40:51;;;;;;;;;;;19.00;49.30;;;;;;4904955;29;19970;-91
2021/03/02 00:43:18;;;;;;;;;;;19.00;49.40;;;;;;4918229;29;20018;-90
2021/03/02 00:45:45;;;;;;;;;;;19.00;49.40;;;;;;4897743;29;20428;-90
2021/03/02 00:48:12;;;;;;;;;;;19.00;49.40;;;;;;4908876;29;20384;-90
2021/03/02 00:50:38;;;;;;;;;;;19.00;49.40;;;;;;4909463;29;20300;-90
2021/03/02 00:53:09;;;;;;;;;;;19.00;49.50;;;;;;4906464;29;20296;-89
2021/03/02 00:55:35;;;;;;;;;;;19.00;49.50;;;;;;4905825;29;20656;-89
2021/03/02 00:58:02;;;;;;;;;;;18.90;49.50;;;;;;4906840;29;19926;-88
2021/03/02 01:00:28;;;;;;;;;;;19.00;49.50;;;;;;4912947;29;19927;-89
2021/03/02 01:02:57;;;;;;;;;;;18.90;49.50;;;;;;4888033;29;20041;-88
2021/03/02 01:05:25;;;;;;;;;;;18.90;49.60;;;;;;4893694;29;20009;-88
2021/03/02 01:07:53;;;;;;;;;;;18.90;49.60;;;;;;4883438;29;19992;-88
2021/03/02 01:10:20;;;;;;;;;;;18.90;50.20;;;;;;4903914;29;19934;-88
2021/03/02 01:13:07;;;;;;;;;;;18.90;49.60;;;;;;4878675;29;21826;-89
2021/03/02 01:15:33;;;;;;;;;;;18.90;49.60;;;;;;4908869;29;20315;-91
2021/03/02 01:18:05;;;;;;;;;;;18.90;49.60;;;;;;4894901;29;19927;-92
2021/03/02 01:20:31;;;;;;;;;;;18.90;49.60;;;;;;4910844;29;19927;-90
2021/03/02 01:22:58;;;;;;;;;;;18.90;49.70;;;;;;4915314;29;19966;-88
2021/03/02 01:25:24;;;;;;;;;;;18.90;49.70;;;;;;4892375;29;19949;-90
2021/03/02 01:27:50;;;;;;;;;;;18.80;49.60;;;;;;4902457;29;19985;-88
2021/03/02 01:30:18;;;;;;;;;;;18.80;49.70;;;;;;4910100;29;20391;-90
2021/03/02 01:32:46;;;;;;;;;;;18.90;49.70;;;;;;4897367;29;20372;-88
2021/03/02 01:35:13;;;;;;;;;;;18.80;49.70;;;;;;4911516;29;19927;-88
2021/03/02 01:37:39;;;;;;;;;;;18.80;49.70;;;;;;4915187;29;19970;-88
2021/03/02 01:40:13;;;;;;;;;;;18.80;49.70;;;;;;4909004;29;20002;-88
2021/03/02 01:42:39;;;;;;;;;;;18.80;49.80;;;;;;4900347;29;19931;-88
2021/03/02 01:45:13;;;;;;;;;;;18.80;49.80;;;;;;4874079;29;19976;-91
2021/03/02 01:47:49;;;;;;;;;;;18.80;49.80;;;;;;4895878;29;19937;-92
2021/03/02 01:50:17;;;;;;;;;;;18.80;49.80;;;;;;4901050;29;19951;-92
2021/03/02 01:52:44;;;;;;;;;;;18.80;49.80;;;;;;4896803;29;20023;-93
2021/03/02 01:55:11;;;;;;;;;;;18.80;49.90;;;;;;4875457;29;19955;-88
2021/03/02 01:57:42;;;;;;;;;;;18.80;49.80;;;;;;4877625;29;19982;-88
2021/03/02 02:00:18;;;;;;;;;;;18.70;49.80;;;;;;4888245;29;20281;-89
2021/03/02 02:02:48;;;;;;;;;;;18.70;49.80;;;;;;4894687;29;20427;-89
2021/03/02 02:05:14;;;;;;;;;;;18.70;49.90;;;;;;4891127;29;19967;-90
2021/03/02 02:07:42;;;;;;;;;;;18.70;49.80;;;;;;4878183;29;19934;-89
2021/03/02 02:10:09;;;;;;;;;;;18.70;49.80;;;;;;4886883;29;19970;-88
2021/03/02 02:12:47;;;;;;;;;;;18.70;49.90;;;;;;4881521;29;20397;-90
2021/03/02 02:15:17;;;;;;;;;;;18.70;49.90;;;;;;4894376;29;19928;-89
2021/03/02 02:17:44;;;;;;;;;;;18.70;49.90;;;;;;4892082;29;20092;-90
2021/03/02 02:20:13;;;;;;;;;;;18.70;49.90;;;;;;4883960;29;19936;-90
2021/03/02 02:22:46;;;;;;;;;;;18.60;49.90;;;;;;4871857;29;19962;-90
2021/03/02 02:25:18;;;;;;;;;;;18.60;49.90;;;;;;4880173;29;20349;-90
2021/03/02 02:27:55;;;;;;;;;;;18.60;49.90;;;;;;4878631;29;19934;-90
2021/03/02 02:30:22;;;;;;;;;;;18.60;50.50;;;;;;4883111;29;19923;-91
2021/03/02 02:32:50;;;;;;;;;;;18.60;49.90;;;;;;4893798;29;19943;-90
2021/03/02 02:35:21;;;;;;;;;;;18.60;50.00;;;;;;4895375;29;19935;-89
2021/03/02 02:37:53;;;;;;;;;;;18.60;50.00;;;;;;4893426;29;19931;-90
2021/03/02 02:40:21;;;;;;;;;;;18.60;50.00;;;;;;4895953;29;19936;-90
2021/03/02 02:42:49;;;;;;;;;;;18.60;50.00;;;;;;4870703;29;19976;-91
2021/03/02 02:45:16;;;;;;;;;;;18.60;50.00;;;;;;4900381;29;20304;-90
2021/03/02 02:47:47;;;;;;;;;;;18.60;50.00;;;;;;4896588;29;20300;-87
2021/03/02 02:50:14;;;;;;;;;;;18.60;50.00;;;;;;4895309;29;19927;-88
2021/03/02 02:52:45;;;;;;;;;;;18.50;50.00;;;;;;4905539;29;19933;-88
2021/03/02 02:55:13;;;;;;;;;;;18.50;50.00;;;;;;4884976;29;20022;-89
2021/03/02 02:57:42;;;;;;;;;;;18.50;50.00;;;;;;4892876;29;19927;-90
2021/03/02 03:00:10;;;;;;;;;;;18.50;50.00;;;;;;4919396;29;19927;-91
2021/03/02 03:02:39;;;;;;;;;;;18.50;50.00;;;;;;4897869;29;19962;-91
2021/03/02 03:05:11;;;;;;;;;;;18.50;50.00;;;;;;4917939;29;19938;-95
2021/03/02 03:07:57;;;;;;;;;;;18.50;50.70;;;;;;4904457;29;20004;-93
2021/03/02 03:10:26;;;;;;;;;;;18.50;50.10;;;;;;4915065;29;20296;-93
2021/03/02 03:12:57;;;;;;;;;;;18.50;50.70;;;;;;4894453;29;19970;-90
2021/03/02 03:15:29;;;;;;;;;;;18.50;50.20;;;;;;4914196;29;20299;-90
2021/03/02 03:17:57;;;;;;;;;;;18.50;50.20;;;;;;4907731;29;20018;-90
2021/03/02 03:20:26;;;;;;;;;;;18.50;50.20;;;;;;4916746;29;19927;-90
2021/03/02 03:22:57;;;;;;;;;;;18.50;50.30;;;;;;4891358;29;20014;-91
2021/03/02 03:25:24;;;;;;;;;;;18.40;50.20;;;;;;4909310;29;20058;-91
2021/03/02 03:28:02;;;;;;;;;;;18.40;50.20;;;;;;4885727;29;19935;-91
2021/03/02 03:30:29;;;;;;;;;;;18.50;50.30;;;;;;4912534;29;19927;-90
2021/03/02 03:33:00;;;;;;;;;;;18.40;50.20;;;;;;4912572;29;20441;-91
2021/03/02 03:35:27;;;;;;;;;;;18.40;50.20;;;;;;4913931;29;19963;-90
2021/03/02 03:37:56;;;;;;;;;;;18.40;50.30;;;;;;4912816;29;19935;-91
2021/03/02 03:40:22;;;;;;;;;;;18.40;50.30;;;;;;4892227;29;19942;-88
2021/03/02 03:42:49;;;;;;;;;;;18.40;50.30;;;;;;4906989;29;19932;-84
2021/03/02 03:45:22;;;;;;;;;;;18.40;50.30;;;;;;4888326;29;19954;-88
2021/03/02 03:47:49;;;;;;;;;;;18.40;50.30;;;;;;4876998;29;19946;-88
2021/03/02 03:50:16;;;;;;;;;;;18.40;50.30;;;;;;4887984;29;19970;-87
2021/03/02 03:52:45;;;;;;;;;;;18.40;50.30;;;;;;4862521;29;19935;-89
2021/03/02 03:55:12;;;;;;;;;;;18.40;50.40;;;;;;4880113;29;19982;-88
2021/03/02 03:57:39;;;;;;;;;;;18.40;50.30;;;;;;4889334;29;20008;-89
2021/03/02 04:00:06;;;;;;;;;;;18.40;50.40;;;;;;4876137;29;19928;-91
2021/03/02 04:02:33;;;;;;;;;;;18.30;50.30;;;;;;4870787;29;19927;-88
2021/03/02 04:05:03;;;;;;;;;;;18.30;50.30;;;;;;4890663;29;20451;-90
2021/03/02 04:07:39;;;;;;;;;;;18.30;50.30;;;;;;4873756;29;19935;-88
2021/03/02 04:10:07;;;;;;;;;;;18.30;50.30;;;;;;4875194;29;19939;-89
2021/03/02 04:12:39;;;;;;;;;;;18.30;50.40;;;;;;4871328;29;20406;-88
2021/03/02 04:15:26;;;;;;;;;;;18.30;50.30;;;;;;4881366;29;20445;-88
2021/03/02 04:17:58;;;;;;;;;;;18.20;50.30;;;;;;4875302;29;19962;-88
2021/03/02 04:20:25;;;;;;;;;;;18.30;50.40;;;;;;4870785;29;19991;-88
2021/03/02 04:22:51;;;;;;;;;;;18.30;50.40;;;;;;4858982;29;19966;-89
2021/03/02 04:25:17;;;;;;;;;;;18.20;50.30;;;;;;4891381;29;20467;-90
2021/03/02 04:27:44;;;;;;;;;;;18.30;50.40;;;;;;4873720;29;20408;-91
2021/03/02 04:30:10;;;;;;;;;;;18.20;50.40;;;;;;4865414;29;20010;-88
2021/03/02 04:32:36;;;;;;;;;;;18.20;50.40;;;;;;4880240;29;19950;-91
2021/03/02 04:35:03;;;;;;;;;;;18.20;50.40;;;;;;4878591;29;19931;-87
2021/03/02 04:37:30;;;;;;;;;;;18.20;50.40;;;;;;4887135;29;20326;-89
2021/03/02 04:39:56;;;;;;;;;;;18.20;50.40;;;;;;4879800;29;19927;-91
2021/03/02 04:42:22;;;;;;;;;;;18.20;50.40;;;;;;4888404;29;19936;-91
2021/03/02 04:44:51;;;;;;;;;;;18.20;50.50;;;;;;4887062;29;20289;-90
2021/03/02 04:47:20;;;;;;;;;;;18.20;50.50;;;;;;4884845;29;19942;-89
2021/03/02 04:49:46;;;;;;;;;;;18.20;50.50;;;;;;4895582;29;19928;-88
2021/03/02 04:52:13;;;;;;;;;;;18.20;50.50;;;;;;4899710;29;19935;-89
2021/03/02 04:54:39;;;;;;;;;;;18.20;50.50;;;;;;4910819;29;20022;-88
2021/03/02 04:57:12;;;;;;;;;;;18.20;50.50;;;;;;4883545;29;19934;-88
2021/03/02 04:59:38;;;;;;;;;;;18.20;50.50;;;;;;4909314;29;19931;-87
2021/03/02 05:02:04;;;;;;;;;;;18.20;50.50;;;;;;4897230;29;19994;-89
2021/03/02 05:04:31;;;;;;;;;;;18.20;50.50;;;;;;4890454;29;19928;-88
2021/03/02 05:06:59;;;;;;;;;;;18.10;50.50;;;;;;4871096;29;20078;-88
2021/03/02 05:09:26;;;;;;;;;;;18.10;50.40;;;;;;4908238;29;20370;-89
2021/03/02 05:11:53;;;;;;;;;;;18.10;50.50;;;;;;4903609;29;20297;-89
2021/03/02 05:14:21;;;;;;;;;;;18.10;50.40;;;;;;4886311;29;19938;-88
2021/03/02 05:16:48;;;;;;;;;;;18.10;50.40;;;;;;4906392;29;19937;-88
2021/03/02 05:19:15;;;;;;;;;;;18.10;50.40;;;;;;4888027;29;19915;-89
2021/03/02 05:21:41;;;;;;;;;;;18.10;50.50;;;;;;4875771;29;19950;-88
2021/03/02 05:24:07;;;;;;;;;;;18.10;50.40;;;;;;4906042;29;20489;-91
2021/03/02 05:26:34;;;;;;;;;;;18.10;50.40;;;;;;4899986;29;19975;-90
2021/03/02 05:29:01;;;;;;;;;;;18.10;50.40;;;;;;4906177;29;20405;-90
2021/03/02 05:31:27;;;;;;;;;;;18.10;50.40;;;;;;4883327;29;19935;-90
2021/03/02 05:33:54;;;;;;;;;;;18.00;50.40;;;;;;4900344;29;19967;-90
2021/03/02 05:36:24;;;;;;;;;;;18.00;50.40;;;;;;4904595;29;20307;-90
2021/03/02 05:38:51;;;;;;;;;;;18.00;50.40;;;;;;4907545;29;19936;-91
2021/03/02 05:41:18;;;;;;;;;;;18.00;50.40;;;;;;4894341;29;20432;-95
2021/03/02 05:43:45;;;;;;;;;;;18.00;50.40;;;;;;4892845;29;20455;-93
2021/03/02 05:46:30;;;;;;;;;;;18.00;50.40;;;;;;4886272;29;19928;-82
2021/03/02 05:48:57;;;;;;;;;;;18.00;50.40;;;;;;4868425;29;20114;-87
2021/03/02 05:55:07;;;;;;;;;;;18.00;50.40;;;;;;4987256;23;19933;-84
2021/03/02 05:57:38;;;;;;;;;;;18.00;50.40;;;;;;4891519;29;19927;-86
2021/03/02 06:00:05;;;;;;;;;;;18.00;50.40;;;;;;4904812;29;19938;-81
2021/03/02 06:02:32;;;;;;;;;;;18.00;50.30;;;;;;4908026;29;19945;-80
2021/03/02 06:04:58;;;;;;;;;;;18.00;50.40;;;;;;4897897;29;20586;-86
2021/03/02 06:07:27;;;;;;;;;;;17.90;50.30;;;;;;4909986;29;19931;-83
2021/03/02 06:09:53;;;;;;;;;;;17.90;50.30;;;;;;4882170;29;19934;-84
2021/03/02 06:12:20;;;;;;;;;;;17.90;50.30;;;;;;4913004;29;19931;-86
2021/03/02 06:14:46;;;;;;;;;;;18.00;50.40;;;;;;4908830;29;19935;-85
2021/03/02 06:17:12;;;;;;;;;;;17.90;50.30;;;;;;4882424;29;19942;-85
2021/03/02 06:19:43;;;;;;;;;;;17.90;50.30;;;;;;4908148;29;19932;-86
2021/03/02 06:22:29;;;;;;;;;;;17.90;50.40;;;;;;4904026;29;19923;-92
2021/03/02 06:24:56;;;;;;;;;;;17.90;50.40;;;;;;4883907;29;20454;-89
2021/03/02 06:27:23;;;;;;;;;;;17.90;50.40;;;;;;4892712;29;19970;-90
2021/03/02 06:30:09;;;;;;;;;;;17.90;50.50;;;;;;4894980;29;19934;-93
2021/03/02 06:32:37;;;;;;;;;;;17.90;51.00;;;;;;4894327;29;19915;-92
2021/03/02 06:35:07;;;;;;;;;;;18.00;50.90;;;;;;4876324;29;19928;-85
2021/03/02 06:37:42;;;;;;;;;;;17.90;50.70;;;;;;4877969;29;19931;-86
2021/03/02 06:40:10;;;;;;;;;;;17.90;50.70;;;;;;4894067;29;20325;-83
2021/03/02 06:42:37;;;;;;;;;;;18.00;50.70;;;;;;4887395;29;19927;-83
2021/03/02 06:45:07;;;;;;;;;;;17.90;50.90;;;;;;4904254;29;20009;-81
2021/03/02 06:47:34;;;;;;;;;;;17.90;50.90;;;;;;4898599;29;19931;-83
2021/03/02 06:50:02;;;;;;;;;;;17.90;50.90;;;;;;4904864;29;19934;-83
2021/03/02 06:52:39;;;;;;;;;;;17.90;51.00;;;;;;4903821;29;20336;-83
2021/03/02 06:55:11;;;;;;;;;;;17.90;51.00;;;;;;4889085;29;21653;-84
2021/03/02 06:57:38;;;;;;;;;;;17.90;50.90;;;;;;4876230;29;19927;-83
2021/03/02 07:00:05;;;;;;;;;;;17.90;50.90;;;;;;4903751;29;20416;-82
2021/03/02 07:02:32;;;;;;;;;;;17.90;50.80;;;;;;4872058;29;19923;-82
2021/03/02 07:05:12;;;;;;;;;;;17.90;50.90;;;;;;4891673;29;19934;-88
2021/03/02 07:07:48;;;;;;;;;;;18.00;51.00;;;;;;4880751;29;20252;-92
2021/03/02 07:10:15;;;;;;;;;;;18.00;51.30;;;;;;4881436;29;19940;-91
2021/03/02 07:12:43;;;;;;;;;;;18.10;51.40;;;;;;4879135;29;19936;-90
2021/03/02 07:15:17;;;;;;;;;;;18.10;51.10;;;;;;4881716;29;19933;-87
2021/03/02 07:17:54;;;;;;;;;;;18.20;51.20;;;;;;4884120;29;19936;-89
2021/03/02 07:20:23;;;;;;;;;;;18.20;51.10;;;;;;4895873;29;20311;-90
2021/03/02 07:22:51;;;;;;;;;;;18.20;51.00;;;;;;4861718;29;19935;-86
2021/03/02 07:25:18;;;;;;;;;;;18.30;51.20;;;;;;4877630;29;19935;-84
2021/03/02 07:27:49;;;;;;;;;;;18.30;50.90;;;;;;4881315;29;19938;-87
2021/03/02 07:30:16;;;;;;;;;;;18.40;50.80;;;;;;4877076;29;19932;-89
2021/03/02 07:32:47;;;;;;;;;;;18.40;50.90;;;;;;4882919;29;19932;-85
2021/03/02 07:35:20;;;;;;;;;;;18.50;50.60;;;;;;4888724;29;20562;-80
2021/03/02 07:37:47;;;;;;;;;;;18.40;49.50;;;;;;4876875;29;20299;-81
2021/03/02 07:40:25;;;;;;;;;;;18.40;49.10;;;;;;4885376;29;19936;-81
2021/03/02 07:42:52;;;;;;;;;;;18.30;48.90;;;;;;4883689;29;19967;-81
2021/03/02 07:45:18;;;;;;;;;;;18.30;48.60;;;;;;4882400;29;19933;-84
2021/03/02 07:47:58;;;;;;;;;;;18.20;48.40;;;;;;4895811;29;19930;-88
2021/03/02 07:50:26;;;;;;;;;;;18.20;48.30;;;;;;4888607;29;20300;-80
2021/03/02 07:53:14;;;;;;;;;;;18.20;48.40;;;;;;4889836;29;19936;-82
2021/03/02 07:55:43;;;;;;;;;;;18.20;49.70;;;;;;4890552;29;19943;-81
2021/03/02 07:58:17;;;;;;;;;;;18.30;49.30;;;;;;4906025;29;19934;-81
2021/03/02 08:00:47;;;;;;;;;;;18.30;48.80;;;;;;4891498;29;19927;-79
2021/03/02 08:03:18;;;;;;;;;;;18.20;48.60;;;;;;4896880;29;19955;-88
2021/03/02 08:05:52;;;;;;;;;;;18.30;50.60;;;;;;4877342;29;20015;-85
2021/03/02 08:08:35;;;;;;;;;;;18.40;50.00;;;;;;4905445;29;19927;-86
2021/03/02 08:11:03;;;;;;;;;;;18.50;49.70;;;;;;4901344;29;20231;-85
2021/03/02 08:13:32;;;;;;;;;;;18.50;49.40;;;;;;4894064;29;20030;-85
2021/03/02 08:15:58;;;;;;;;;;;18.60;48.70;;;;;;4899119;29;21413;-86
2021/03/02 08:18:26;;;;;;;;;;;18.60;48.60;;;;;;4903155;29;19976;-86
2021/03/02 08:21:11;;;;;;;;;;;18.60;48.10;;;;;;4902466;29;19945;-87
2021/03/02 08:23:44;;;;;;;;;;;18.60;47.70;;;;;;4878800;29;19958;-86
2021/03/02 08:26:21;;;;;;;;;;;18.60;47.60;;;;;;4873152;29;19935;-86
2021/03/02 08:29:07;;;;;;;;;;;18.70;47.40;;;;;;4908043;29;20041;-86
2021/03/02 08:31:34;;;;;;;;;;;18.60;47.80;;;;;;4862407;29;20287;-86
2021/03/02 08:34:02;;;;;;;;;;;18.70;47.00;;;;;;4882752;29;19966;-85
2021/03/02 08:36:29;;;;;;;;;;;18.70;47.40;;;;;;4895506;29;20345;-86
2021/03/02 08:38:56;;;;;;;;;;;18.70;47.10;;;;;;4892560;29;19942;-85
2021/03/02 08:41:28;;;;;;;;;;;18.70;47.00;;;;;;4900062;29;19935;-91
2021/03/02 08:43:57;;;;;;;;;;;18.80;46.90;;;;;;4894821;29;19955;-92
2021/03/02 08:46:25;;;;;;;;;;;18.80;47.00;;;;;;4895424;29;19943;-94
2021/03/02 08:49:20;;;;;;;;;;;18.80;46.80;;;;;;4903423;29;20285;-87
2021/03/02 08:51:46;;;;;;;;;;;18.80;46.70;;;;;;4854901;29;19979;-90
2021/03/02 08:54:13;;;;;;;;;;;18.90;47.10;;;;;;4889211;29;20016;-83
2021/03/02 08:56:39;;;;;;;;;;;18.90;47.20;;;;;;4904412;29;19939;-84
2021/03/02 08:59:07;;;;;;;;;;;18.90;46.50;;;;;;4903234;29;19934;-87
2021/03/02 09:01:34;;;;;;;;;;;19.00;46.70;;;;;;4902415;29;20432;-85
2021/03/02 09:04:05;;;;;;;;;;;19.00;47.50;;;;;;4879596;29;20723;-88
2021/03/02 09:06:31;;;;;;;;;;;19.00;47.00;;;;;;4889739;29;19931;-91
2021/03/02 09:09:03;;;;;;;;;;;19.00;46.50;;;;;;4889558;29;20320;-86
2021/03/02 09:11:32;;;;;;;;;;;19.00;46.50;;;;;;4887419;29;19931;-86
2021/03/02 09:14:00;;;;;;;;;;;19.00;46.50;;;;;;4898433;29;20018;-91
2021/03/02 09:16:31;;;;;;;;;;;19.00;46.60;;;;;;4892974;29;19926;-92
2021/03/02 09:19:18;;;;;;;;;;;19.00;46.30;;;;;;4894111;29;19927;-92
2021/03/02 09:21:48;;;;;;;;;;;19.00;46.30;;;;;;4865019;29;19931;-84
2021/03/02 09:24:28;;;;;;;;;;;19.10;46.70;;;;;;4907746;29;20177;-84
2021/03/02 09:26:59;;;;;;;;;;;19.10;46.90;;;;;;4904582;29;19939;-84
2021/03/02 09:29:32;;;;;;;;;;;19.10;47.70;;;;;;4888777;29;19983;-84
2021/03/02 09:32:03;;;;;;;;;;;19.10;49.40;;;;;;4890022;29;19935;-84
2021/03/02 09:34:36;;;;;;;;;;;19.20;50.40;;;;;;4881571;29;20455;-87
2021/03/02 09:37:06;;;;;;;;;;;19.60;49.50;;;;;;4893200;29;20383;-86
2021/03/02 09:39:33;;;;;;;;;;;20.80;47.40;;;;;;4906570;29;20025;-91
2021/03/02 09:42:00;;;;;;;;;;;21.40;46.00;;;;;;4897676;29;19969;-91
2021/03/02 09:44:28;;;;;;;;;;;22.00;44.90;;;;;;4896789;29;19994;-91
2021/03/02 09:46:57;;;;;;;;;;;22.40;44.30;;;;;;4891565;28;19931;-92
2021/03/02 09:49:39;;;;;;;;;;;22.70;44.00;;;;;;4891137;29;20019;-90
2021/03/02 09:52:07;;;;;;;;;;;22.80;43.90;;;;;;4920779;29;20154;-88
2021/03/02 09:54:33;;;;;;;;;;;23.10;43.50;;;;;;4886184;29;19970;-91
2021/03/02 09:57:03;;;;;;;;;;;23.30;43.10;;;;;;4887477;29;19928;-90
2021/03/02 09:59:30;;;;;;;;;;;23.50;42.90;;;;;;4889962;29;19963;-91
2021/03/02 10:01:57;;;;;;;;;;;23.60;42.90;;;;;;4891147;29;20003;-89
2021/03/02 10:04:25;;;;;;;;;;;23.80;42.70;;;;;;4890369;29;19934;-91
2021/03/02 10:06:52;;;;;;;;;;;24.00;42.50;;;;;;4869198;29;19942;-89
2021/03/02 10:09:18;;;;;;;;;;;24.10;42.20;;;;;;4879798;29;19928;-86
2021/03/02 10:11:44;;;;;;;;;;;24.30;42.20;;;;;;4891021;29;19927;-91
2021/03/02 10:14:11;;;;;;;;;;;24.30;42.10;;;;;;4889728;29;20384;-90
2021/03/02 10:16:38;;;;;;;;;;;24.40;42.50;;;;;;4908023;29;19938;-90
2021/03/02 10:19:20;;;;;;;;;;;24.40;42.10;;;;;;4881799;29;20372;-86
2021/03/02 10:21:57;;;;;;;;;;;24.70;41.80;;;;;;4889531;29;20855;-87
2021/03/02 10:24:36;;;;;;;;;;;24.80;41.80;;;;;;4884248;29;20019;-90
2021/03/02 10:27:10;;;;;;;;;;;24.90;41.70;;;;;;4894302;29;20403;-93
2021/03/02 10:29:39;;;;;;;;;;;25.00;41.30;;;;;;4888210;29;19928;-89
2021/03/02 10:32:06;;;;;;;;;;;25.20;41.10;;;;;;4874504;29;20507;-89
2021/03/02 10:34:38;;;;;;;;;;;25.30;41.10;;;;;;4879121;29;19938;-90
2021/03/02 10:37:06;;;;;;;;;;;25.50;41.00;;;;;;4894237;29;19916;-89
2021/03/02 10:39:33;;;;;;;;;;;25.60;41.20;;;;;;4890923;29;19932;-91
2021/03/02 10:41:59;;;;;;;;;;;25.70;40.60;;;;;;4885932;29;19931;-88
2021/03/02 10:44:26;;;;;;;;;;;25.70;40.80;;;;;;4883188;29;20440;-91
2021/03/02 10:46:52;;;;;;;;;;;25.80;40.70;;;;;;4886102;29;19939;-91
2021/03/02 10:49:19;;;;;;;;;;;25.90;40.50;;;;;;4891995;29;19934;-91
2021/03/02 10:51:45;;;;;;;;;;;26.00;40.60;;;;;;4885169;29;20345;-89
2021/03/02 10:54:12;;;;;;;;;;;26.00;40.60;;;;;;4882848;29;20473;-85
2021/03/02 10:56:38;;;;;;;;;;;26.10;40.50;;;;;;4882871;29;19936;-86
2021/03/02 10:59:05;;;;;;;;;;;26.30;40.40;;;;;;4891819;29;19963;-93
2021/03/02 11:01:32;;;;;;;;;;;26.40;40.20;;;;;;4871114;29;19983;-89
2021/03/02 11:04:00;;;;;;;;;;;26.50;40.10;;;;;;4879139;29;19927;-85
2021/03/02 11:06:28;;;;;;;;;;;25.30;41.40;;;;;;4890086;29;20410;-82
2021/03/02 11:09:00;;;;;;;;;;;24.40;44.90;;;;;;4886065;29;20415;-82
2021/03/02 11:11:29;;;;;;;;;;;23.80;46.60;;;;;;4892045;29;19963;-83
2021/03/02 11:13:55;;;;;;;;;;;23.40;47.90;;;;;;4883226;29;19928;-82
2021/03/02 11:16:22;;;;;;;;;;;23.00;48.80;;;;;;4887896;29;19937;-83
2021/03/02 11:18:52;;;;;;;;;;;22.90;49.40;;;;;;4884632;29;19936;-83
2021/03/02 11:21:19;;;;;;;;;;;22.70;49.90;;;;;;4883375;29;19927;-81
2021/03/02 11:23:45;;;;;;;;;;;22.60;50.20;;;;;;4881349;29;19932;-81
2021/03/02 11:26:12;;;;;;;;;;;22.50;50.80;;;;;;4892946;29;19943;-79
2021/03/02 11:28:38;;;;;;;;;;;22.30;51.00;;;;;;4881093;29;19974;-79
2021/03/02 11:31:04;;;;;;;;;;;22.30;51.30;;;;;;4865378;29;20612;-81
2021/03/02 11:33:33;;;;;;;;;;;22.20;51.50;;;;;;4882685;29;20582;-84
2021/03/02 11:36:01;;;;;;;;;;;22.10;51.70;;;;;;4867924;29;20636;-82
2021/03/02 11:38:28;;;;;;;;;;;22.00;51.60;;;;;;4885872;29;21668;-82
2021/03/02 11:40:59;;;;;;;;;;;22.00;51.70;;;;;;4883641;29;19935;-83
2021/03/02 11:43:25;;;;;;;;;;;21.90;51.50;;;;;;4891829;29;19915;-82
2021/03/02 11:45:52;;;;;;;;;;;21.80;51.70;;;;;;4865088;29;20369;-83
2021/03/02 11:48:23;;;;;;;;;;;21.80;52.00;;;;;;4870680;29;19927;-83
2021/03/02 11:50:58;;;;;;;;;;;21.80;51.90;;;;;;4882324;29;19928;-83
2021/03/02 11:53:24;;;;;;;;;;;21.70;52.20;;;;;;4888586;29;20539;-81
2021/03/02 11:55:51;;;;;;;;;;;21.70;53.00;;;;;;4884862;29;19928;-82
2021/03/02 11:58:22;;;;;;;;;;;21.60;52.30;;;;;;4889255;29;19932;-82
2021/03/02 12:00:48;;;;;;;;;;;21.60;52.30;;;;;;4885343;29;20369;-81
2021/03/02 12:03:20;;;;;;;;;;;21.50;52.30;;;;;;4893814;29;20317;-84
2021/03/02 12:05:48;;;;;;;;;;;21.50;52.30;;;;;;4884054;29;21282;-84
2021/03/02 12:08:16;;;;;;;;;;;21.40;52.20;;;;;;4892444;29;19932;-83
2021/03/02 12:10:43;;;;;;;;;;;21.40;52.20;;;;;;4884753;29;19958;-85
2021/03/02 12:13:11;;;;;;;;;;;21.30;52.20;;;;;;4885024;29;19955;-83
2021/03/02 12:15:37;;;;;;;;;;;21.40;52.40;;;;;;4883237;29;19955;-83
2021/03/02 12:18:05;;;;;;;;;;;21.30;52.20;;;;;;4873030;29;20464;-83
2021/03/02 12:20:31;;;;;;;;;;;21.30;52.50;;;;;;4889492;29;20425;-83
2021/03/02 12:22:58;;;;;;;;;;;21.20;52.40;;;;;;4885862;29;19935;-83
2021/03/02 12:25:24;;;;;;;;;;;21.20;52.50;;;;;;4887672;29;19927;-83
2021/03/02 12:27:53;;;;;;;;;;;21.20;52.40;;;;;;4874136;29;19979;-83
2021/03/02 12:30:20;;;;;;;;;;;21.10;52.30;;;;;;4886909;29;19940;-84
2021/03/02 12:32:46;;;;;;;;;;;21.10;52.50;;;;;;4883072;29;20420;-81
2021/03/02 12:35:15;;;;;;;;;;;21.20;52.50;;;;;;4873413;29;19935;-80
2021/03/02 12:37:51;;;;;;;;;;;21.10;52.50;;;;;;4883870;29;19928;-81
2021/03/02 12:40:18;;;;;;;;;;;21.10;52.20;;;;;;4886312;29;19935;-83
2021/03/02 12:42:47;;;;;;;;;;;21.10;52.10;;;;;;4874031;29;20501;-86
2021/03/02 12:45:13;;;;;;;;;;;21.10;58.70;;;;;;4875496;29;19932;-85
2021/03/02 12:47:40;;;;;;;;;;;21.20;58.10;;;;;;4865144;29;19967;-83
2021/03/02 12:50:09;;;;;;;;;;;21.20;56.70;;;;;;4888460;29;19943;-83
2021/03/02 12:52:36;;;;;;;;;;;21.30;57.60;;;;;;4879468;29;19932;-84
2021/03/02 12:55:04;;;;;;;;;;;21.30;57.00;;;;;;4867159;29;19920;-84
2021/03/02 12:57:35;;;;;;;;;;;21.40;56.30;;;;;;4880921;29;19938;-81
2021/03/02 13:00:05;;;;;;;;;;;21.30;54.10;;;;;;4884990;29;19927;-86
2021/03/02 13:02:33;;;;;;;;;;;21.30;56.20;;;;;;4869674;29;20471;-89
2021/03/02 13:05:03;;;;;;;;;;;21.50;56.70;;;;;;4871064;29;19934;-87
2021/03/02 13:07:29;;;;;;;;;;;21.60;56.70;;;;;;4865368;29;20707;-89
2021/03/02 13:09:56;;;;;;;;;;;21.80;56.20;;;;;;4870447;29;19975;-90
2021/03/02 13:12:25;;;;;;;;;;;21.90;55.40;;;;;;4878500;29;20291;-91
2021/03/02 13:14:51;;;;;;;;;;;22.00;54.40;;;;;;4868777;29;19933;-87
2021/03/02 13:17:19;;;;;;;;;;;22.10;54.40;;;;;;4884946;29;19932;-89
2021/03/02 13:19:46;;;;;;;;;;;22.20;53.90;;;;;;4864527;29;19916;-91
2021/03/02 13:22:12;;;;;;;;;;;22.20;54.10;;;;;;4861544;29;20378;-89
2021/03/02 13:24:38;;;;;;;;;;;22.30;53.80;;;;;;4871737;29;20039;-89
2021/03/02 13:27:06;;;;;;;;;;;22.30;53.40;;;;;;4872929;29;19927;-90
2021/03/02 13:29:33;;;;;;;;;;;22.40;53.30;;;;;;4858928;29;20369;-91
2021/03/02 13:32:01;;;;;;;;;;;22.40;53.30;;;;;;4878497;29;20022;-88
2021/03/02 13:34:30;;;;;;;;;;;22.50;53.10;;;;;;4863835;29;19939;-86
2021/03/02 13:36:57;;;;;;;;;;;22.50;52.40;;;;;;4887285;29;19932;-88
2021/03/02 13:39:24;;;;;;;;;;;22.50;52.20;;;;;;4872172;29;19932;-87
2021/03/02 13:41:50;;;;;;;;;;;22.60;52.00;;;;;;4891490;29;19928;-84
2021/03/02 13:44:18;;;;;;;;;;;22.60;51.90;;;;;;4885022;29;19935;-85
2021/03/02 13:46:50;;;;;;;;;;;22.60;51.80;;;;;;4880753;29;19928;-88
2021/03/02 13:49:28;;;;;;;;;;;22.70;51.50;;;;;;4880183;29;19943;-88
2021/03/02 13:51:54;;;;;;;;;;;22.70;51.20;;;;;;4886147;29;19928;-86
2021/03/02 13:54:21;;;;;;;;;;;22.80;51.60;;;;;;4876564;29;20019;-85
2021/03/02 13:56:49;;;;;;;;;;;22.80;51.30;;;;;;4893343;29;20054;-85
2021/03/02 13:59:16;;;;;;;;;;;22.90;51.50;;;;;;4893018;29;19942;-89
2021/03/02 14:01:43;;;;;;;;;;;22.90;51.10;;;;;;4881792;29;19945;-88
2021/03/02 14:04:10;;;;;;;;;;;22.90;50.90;;;;;;4874887;29;20278;-90
2021/03/02 14:06:38;;;;;;;;;;;22.90;50.60;;;;;;4882725;29;19999;-92
2021/03/02 14:09:06;;;;;;;;;;;22.90;50.40;;;;;;4890317;29;19928;-90
2021/03/02 14:11:36;;;;;;;;;;;22.90;50.30;;;;;;4872495;29;20222;-88
2021/03/02 14:14:04;;;;;;;;;;;22.90;50.60;;;;;;4884740;29;19928;-83
2021/03/02 14:16:30;;;;;;;;;;;23.00;50.60;;;;;;4885990;29;19927;-85
2021/03/02 14:18:59;;;;;;;;;;;23.00;50.80;;;;;;4905226;29;19971;-85
2021/03/02 14:21:25;;;;;;;;;;;23.00;49.70;;;;;;4885662;29;19928;-85
2021/03/02 14:23:52;;;;;;;;;;;23.00;50.10;;;;;;4890715;29;20022;-88
2021/03/02 14:26:18;;;;;;;;;;;23.00;50.00;;;;;;4889701;29;20308;-92
2021/03/02 14:28:46;;;;;;;;;;;23.00;50.80;;;;;;4891448;29;19939;-86
2021/03/02 14:31:13;;;;;;;;;;;23.00;49.70;;;;;;4886302;29;19946;-91